x

South Hatteras - 225 South Of Cape Hatteras (41002) Wave Buoy

10:50am - Thu 18th Dec 2014 All times are EST. -5 hours from GMT.

  • Sig Wave height 3.0ft
  • Swell Direction
  • Peak Period 7s
  • Average Period 5s
  • Wind
    11mph, 16mph gusts
  • Sea Temp 73°f
  • Air Temp 70°f
  • Sea Pressure 1019.9mb
  • South Hatteras - 225 South Of Cape Hatteras
  • South Hatteras - 225 South Of Cape Hatteras

More Historic Weather Station data

Upgrade to MSW Pro to gain access to the past 30 days of data for over 8000 Wavebouys and Weather Stations around the globe.

Join Pro

Comparision Forecast

View Surf forecast
   
Thu 12/18 10:50am 3ft 7s 5s 11 16 mph 1019.9mb 73f 70f
9:50am 3.5ft 7s 5s 13 16 mph 1020mb 73f 70f
8:50am 3.5ft 7s 5s 13 18 mph 1019.5mb 73f 70f
7:50am 4ft 6s 5s 13 18 mph 1018.8mb 73f 70f
6:50am 4ft 7s 5s 11 16 mph 1018.3mb 73f 69f
5:50am 4.5ft 7s 5s 13 16 mph 1018.3mb 73f 69f
4:50am 4.5ft 7s 5s 13 16 mph 1017.9mb 73f 69f
3:50am 4.5ft 7s 6s 13 18 mph 1017.9mb 73f 69f
2:50am 4.5ft 7s 6s 9 13 mph 1018.1mb 73f 69f
1:50am 4.5ft 7s 6s 11 16 mph 1018.4mb 73f 69f
12:50am 5ft 7s 6s 9 13 mph 1018.5mb 73f 68f
Wed 12/17 11:50pm 5ft 7s 6s 7 11 mph 1018.9mb 73f 68f
10:50pm 5ft 7s 6s 9 11 mph 1019.4mb 73f 68f
9:50pm 5ft 7s 6s 4 7 mph 1019.7mb 73f 68f
8:50pm 5.5ft 7s 6s 7 11 mph 1019.6mb 73f 68f
7:50pm 6ft 7s 6s 4 9 mph 1019.4mb 73f 67f
6:50pm 5.5ft 6s 6s 4 9 mph 1018.9mb 73f 67f
5:50pm 6ft 8s 6s 7 11 mph 1018.4mb 73f 67f
4:50pm 6ft 7s 6s 7 9 mph 1017.6mb 73f 67f
3:50pm 6.5ft 8s 6s 9 13 mph 1017.5mb 73f 68f
2:50pm 6.5ft 7s 6s 9 13 mph 1017.3mb 73f 68f
1:50pm 7ft 8s 6s 9 13 mph 1017.1mb 73f 68f
12:50pm 7ft 8s 6s 11 18 mph 1017.6mb 73f 68f
11:50am 8ft 8s 6s 13 20 mph 1018.4mb 73f 68f
10:50am 8.5ft 8s 6s 16 18 mph 1019.2mb 73f 69f
9:50am 10ft 8s 7s 18 25 mph 1019.2mb 73f 70f
8:50am 9.5ft 8s 6s 22 27 mph 1018.2mb 73f 70f
7:50am 9.5ft 8s 6s 25 31 mph 1017.4mb 73f 70f
6:50am 9ft 7s 6s 25 31 mph 1016.6mb 73f 70f
5:50am 8.5ft 7s 6s 25 31 mph 1015.9mb 73f 72f
4:50am 8ft 7s 6s 27 31 mph 1014.9mb 73f 70f
3:50am 8ft 7s 6s 27 31 mph 1014.6mb 73f 74f
2:50am 7ft 6s 5s 29 34 mph 1015.1mb 73f 73f
1:50am 6.5ft 6s 5s 27 36 mph 1015.3mb 73f 73f
12:50am 6ft 6s 5s 27 31 mph 1016.2mb 73f 73f
Tue 12/16 11:50pm 6ft 6s 5s 25 31 mph 1017mb 73f 73f
10:50pm 4.5ft 5s 5s 25 27 mph 1017.8mb 73f 73f
9:50pm 4.5ft 5s 5s 22 25 mph 1018.5mb 73f 73f
8:50pm 4ft 5s 4s 20 25 mph 1018.8mb 73f 73f
7:50pm 3.5ft 10s 4s 20 25 mph 1018.8mb 73f 73f
6:50pm 3.5ft 11s 4s 18 22 mph 1018.7mb 73f 72f
5:50pm 3ft 11s 4s 20 22 mph 1018.7mb 73f 72f
4:50pm 3ft 11s 4s 16 20 mph 1018.6mb 73f 72f
3:50pm 3ft 11s 5s 18 20 mph 1018.8mb 73f 72f
2:50pm 2.5ft 9s 5s 16 20 mph 1019mb 73f 72f
1:50pm 2.5ft 11s 5s 16 20 mph 1019.1mb 73f 71f
12:50pm 2.5ft 11s 5s 13 18 mph 1019.7mb 73f 71f
11:50am 2.5ft 11s 6s 11 16 mph 1020.9mb 73f 71f
10:50am 2.5ft 11s 6s 11 16 mph 1021.8mb 73f 71f
9:50am 2.5ft 11s 6s 13 16 mph 1021.9mb 73f 70f
8:50am 2.5ft 11s 6s 9 16 mph 1021.8mb 73f 70f
7:50am 2.5ft 11s 6s 9 11 mph 1021.6mb 73f 69f
6:50am 2.5ft 11s 7s 9 11 mph 1021.2mb 73f 68f
5:50am 3.5ft 11s 7s 9 13 mph 1020.7mb 73f 68f
4:50am 3ft 11s 7s 9 11 mph 1020.3mb 73f 68f
3:50am 3.5ft 8s 7s 9 11 mph 1020.4mb 73f 68f
2:50am 3.5ft 11s 6s 7 9 mph 1020.5mb 73f 68f
1:50am 3.5ft 8s 6s 7 9 mph 1020.8mb 73f 67f
12:50am 3.5ft 8s 6s 4 7 mph 1020.8mb 73f 67f
Mon 12/15 11:50pm 3.5ft 11s 6s 7 9 mph 1020.8mb 73f 67f
10:50pm 3.5ft 8s 6s 7 9 mph 1020.9mb 73f 67f
9:50pm 4ft 8s 6s 4 7 mph 1020.8mb 73f 67f
8:50pm 4ft 8s 6s  -  4 mph 1020.9mb 73f 67f
7:50pm 4ft 8s 6s  -  2 mph 1020.7mb 73f 67f
6:50pm 4ft 8s 6s  -  2 mph 1020.3mb 73f 67f
5:50pm 4ft 8s 6s 4 7 mph 1019.6mb 73f 67f
4:50pm 4.5ft 8s 6s 2 4 mph 1019mb 73f 67f
3:50pm 4ft 8s 6s  -  2 mph 1018.9mb 73f 70f
2:50pm 4ft 8s 6s 2 4 mph 1018.6mb 73f 67f
1:50pm 3.5ft 8s 6s 2 4 mph 1018.4mb 73f 67f
12:50pm 4ft 8s 6s 2 7 mph 1018.6mb 73f 67f
11:50am 4ft 9s 6s 7 9 mph 1019mb 73f 67f
10:50am 4ft 8s 6s 7 11 mph 1019.7mb 73f 66f
9:50am 4ft 8s 6s 9 13 mph 1019.7mb 73f 66f
8:50am 4ft 8s 6s 11 16 mph 1019.1mb 73f 66f
7:50am 4ft 5s 5s 9 13 mph 1018.5mb 73f 66f
6:50am 4ft 6s 5s 11 13 mph 1017.9mb 73f 66f
5:50am 4ft 5s 5s 11 16 mph 1017.2mb 73f 66f
4:50am 4ft 8s 5s 11 13 mph 1016.6mb 73f 66f
3:50am 4.5ft 6s 6s 13 18 mph 1016.1mb 73f 66f
2:50am 4.5ft 6s 5s 9 11 mph 1016.1mb 73f 66f
1:50am 4.5ft 6s 5s 9 13 mph 1015.8mb 73f 66f
12:50am 5ft 6s 5s 11 16 mph 1015.8mb 73f 66f
Sun 12/14 11:50pm 5ft 6s 5s 13 18 mph 1015.9mb 73f 66f
10:50pm 5ft 6s 5s 18 22 mph 1016mb 73f 67f
9:50pm 5ft 5s 5s 20 25 mph 1015.7mb 73f 68f
8:50pm 5ft 6s 5s 20 25 mph 1015.5mb 73f 69f
7:50pm 4.5ft 11s 5s 18 25 mph 1015.3mb 73f 69f
6:50pm 4.5ft 8s 5s 18 22 mph 1015.1mb 73f 69f
5:50pm 4.5ft 8s 5s 16 22 mph 1014.8mb 73f 69f